Sun Valley, CA

2:32 AM PST on December 27, 2014 (GMT -0800)
Weather near the CBS Studio Center | Change Station
CLOSE
Current Station
Personal Weather Station
Location: Studio City, CA
Elevation: 597 ft
Nearby Weather Stations
Active Advisory: Wind Advisory

Elev 597 ft 34.14 °N, 118.38 °W | Updated 5 seconds ago

Clear
Clear
39.4 °F
Feels Like 39 °F
N
0.0
Wind Variable Wind from NW
Gusts 0.0 mph

Today
High -- | Low -- °F
--% Chance of Precip.
Yesterday
High -- | Low -- °F
Precip. -- in
6:58 AM 4:51 PM
Waxing Crescent, 35% visible
Pressure 30.19 in
Visibility 10.0 miles
Clouds Clear
Windchill 39 °F
Dew Point 21 °F
Humidity 47%
Rainfall 0.00 in
Snow Depth Not available.
UV 0 out of 12
Pollen 7.00 out of 12
Air Quality Not available.
Flu Activity Not available.
METAR KBUR 270953Z 00000KT 10SM CLR 07/M07 A3021 RMK AO2 SLP222 T00721072

More Conditions Fewer Conditions

Pressure 30.19 in
Visibility 10.0 miles
Clouds Clear
Windchill 39 °F
Dew Point 21 °F
Humidity 47%
Rainfall 0.00 in
Snow Depth Not available.
UV 0 out of 12
Pollen 7.00 out of 12
Air Quality Not available.
Flu Activity Not available.
METAR KBUR 270953Z 00000KT 10SM CLR 07/M07 A3021 RMK AO2 SLP222 T00721072

More Conditions Fewer Conditions

10-Day Weather Forecast

Almanac

Astronomy

Dec. 27, 2014 Rise Set
Actual Time
Civil Twilight
Nautical Twilight
Astronomical Twilight
Moon
Length of Visible Light
Length of Day
Tomorrow will be .
, % of the Moon is Illuminated

Today's Extremes

State Highs State Lows

Community

WunderPhotos

Upload Photos

1,780,876 photos uploaded!

WunderBlogs® & News

Nearby

Air Quality

  Air Quality AQ Index Pollutant
Not available.

Snow Depth

Station Depth Elevation

Earthquake Activity

City Distance Mag. Time & Date
Minimum magnitude displayed is 2.5.

Coastal Water Temperatures

Place Temperature

Nearby Weather Stations